Time;durP1;ratioP1;P1;durP2;ratioP2;P2;SDS_P1;SDS_P2;PMS_P1;PMS_P2;Temp;Humidity;BMP_temperature;BMP_pressure;BME280_temperature;BME280_humidity;BME280_pressure;Samples;Min_cycle;Max_cycle;Signal;HPM_P1;HPM_P2
2022/09/06 00:02:31;;;;;;;4.05;2.83;;;;;;;24.86;46.76;95601.59;5006229;28;20048;-67
2022/09/06 00:04:57;;;;;;;4.68;2.80;;;;;;;24.25;47.03;95509.50;4991159;28;20041;-66
2022/09/06 00:07:22;;;;;;;5.13;2.80;;;;;;;24.82;46.97;95602.38;5003032;28;20026;-68
2022/09/06 00:09:48;;;;;;;3.65;2.75;;;;;;;24.21;47.03;95528.13;5005563;28;20022;-63
2022/09/06 00:12:13;;;;;;;3.25;2.58;;;;;;;24.40;46.99;95542.72;5007551;28;20049;-66
2022/09/06 00:14:38;;;;;;;3.50;2.42;;;;;;;24.73;46.80;95591.75;5004852;28;20030;-62
2022/09/06 00:17:04;;;;;;;4.20;2.85;;;;;;;24.79;46.70;95606.84;5004933;28;20045;-63
2022/09/06 00:19:29;;;;;;;4.68;2.63;;;;;;;24.53;46.72;95554.59;5004551;28;20045;-64
2022/09/06 00:21:55;;;;;;;3.50;2.70;;;;;;;24.30;46.93;95522.38;5005769;28;20026;-64
2022/09/06 00:24:20;;;;;;;3.63;2.80;;;;;;;24.79;46.74;95606.13;5001799;28;20589;-64
2022/09/06 00:26:46;;;;;;;3.80;2.60;;;;;;;24.81;46.90;95595.41;5003635;28;20590;-65
2022/09/06 00:29:11;;;;;;;3.75;2.53;;;;;;;24.76;46.94;95585.25;5003755;28;20415;-61
2022/09/06 00:31:37;;;;;;;3.60;2.67;;;;;;;24.76;46.80;95590.72;5003597;28;20077;-62
2022/09/06 00:34:02;;;;;;;4.28;3.15;;;;;;;24.83;46.73;95602.59;5004161;28;20026;-63
2022/09/06 00:36:28;;;;;;;3.85;2.30;;;;;;;24.82;46.81;95592.19;4984918;28;20115;-66
2022/09/06 00:38:53;;;;;;;4.72;2.90;;;;;;;24.61;46.65;95579.38;4979989;28;20549;-65
2022/09/06 00:41:19;;;;;;;3.17;2.63;;;;;;;24.34;46.73;95522.91;4983446;28;20529;-66
2022/09/06 00:43:44;;;;;;;4.95;2.63;;;;;;;24.81;46.83;95598.16;4984202;28;20027;-65
2022/09/06 00:46:13;;;;;;;7.10;3.33;;;;;;;24.20;46.86;95523.94;4984497;28;20020;-68
2022/09/06 00:48:39;;;;;;;4.90;2.30;;;;;;;24.78;46.69;95607.34;4968582;28;20491;-67
2022/09/06 00:51:06;;;;;;;4.25;2.70;;;;;;;24.61;46.60;95576.66;4983996;28;20038;-66
2022/09/06 00:53:31;;;;;;;4.60;2.65;;;;;;;24.69;46.75;95586.53;4984009;28;20105;-67
2022/09/06 00:55:57;;;;;;;4.55;2.60;;;;;;;24.29;46.89;95526.38;4980411;28;20050;-65
2022/09/06 00:58:22;;;;;;;3.55;2.53;;;;;;;24.29;46.88;95531.84;4966103;28;20018;-65
2022/09/06 01:00:48;;;;;;;3.35;2.60;;;;;;;24.23;47.06;95528.38;4955816;28;20513;-65
2022/09/06 01:03:14;;;;;;;2.50;2.22;;;;;;;24.78;46.66;95604.63;4982798;28;20470;-67
2022/09/06 01:06:16;;;;;;;3.40;2.90;;;;;;;24.82;46.58;95605.84;4981519;28;20046;-67
2022/09/06 01:09:12;;;;;;;3.38;2.70;;;;;;;24.72;46.74;95612.09;4962824;28;20039;-66
2022/09/06 01:11:51;;;;;;;4.50;2.97;;;;;;;24.73;46.62;95608.13;4971784;28;20427;-66
2022/09/06 01:15:01;;;;;;;4.93;3.10;;;;;;;24.76;46.54;95609.84;4959931;28;20038;-65
2022/09/06 01:17:40;;;;;;;5.20;2.83;;;;;;;24.37;46.91;95554.66;4970895;28;20133;-66
2022/09/06 01:20:30;;;;;;;3.78;2.90;;;;;;;24.71;46.86;95605.13;4982508;28;20136;-63
2022/09/06 01:23:27;;;;;;;4.60;2.90;;;;;;;24.72;46.75;95603.91;4974424;28;20057;-64
2022/09/06 01:25:56;;;;;;;3.85;2.45;;;;;;;24.71;46.42;95605.91;4990942;28;20057;-65
2022/09/06 01:28:59;;;;;;;6.35;2.70;;;;;;;24.67;46.86;95605.41;4977287;28;20026;-65
2022/09/06 01:31:47;;;;;;;3.55;2.55;;;;;;;24.69;46.97;95607.63;4858651;29;20117;-67
2022/09/06 01:34:20;;;;;;;3.97;2.60;;;;;;;24.67;46.67;95601.94;4841064;29;20033;-65
2022/09/06 01:36:47;;;;;;;3.90;3.28;;;;;;;24.21;46.76;95532.84;4949592;28;20053;-64
2022/09/06 01:39:23;;;;;;;7.90;2.63;;;;;;;24.30;46.78;95533.31;5004482;28;20619;-66
2022/09/06 01:41:49;;;;;;;3.50;2.55;;;;;;;24.31;46.73;95544.97;4975582;28;20042;-67
2022/09/06 01:44:14;;;;;;;4.18;3.00;;;;;;;24.07;46.50;95504.63;4990778;28;20056;-67
2022/09/06 01:46:44;;;;;;;4.05;2.47;;;;;;;24.63;46.47;95587.81;4960439;28;20176;-62
2022/09/06 01:49:28;;;;;;;;;;;;;;;24.64;46.82;95581.09;5000034;28;20029;-65
2022/09/06 01:52:01;;;;;;;3.10;2.50;;;;;;;24.55;46.55;95571.19;5002056;28;20059;-65
2022/09/06 01:54:54;;;;;;;4.20;2.50;;;;;;;24.59;46.47;95573.69;5006886;28;20034;-64
2022/09/06 01:57:56;;;;;;;3.97;2.60;;;;;;;24.62;46.76;95575.38;5005688;28;20034;-65
2022/09/06 02:00:22;;;;;;;4.72;2.70;;;;;;;24.52;46.80;95552.34;4994374;28;20046;-66
2022/09/06 02:03:06;;;;;;;4.05;2.88;;;;;;;24.64;46.45;95572.91;5003708;28;20143;-66
2022/09/06 02:05:50;;;;;;;3.63;2.30;;;;;;;24.65;46.63;95579.84;4995553;28;20729;-65
2022/09/06 02:08:30;;;;;;;3.97;2.70;;;;;;;24.56;46.60;95567.22;4988623;28;20553;-63
2022/09/06 02:11:00;;;;;;;5.18;3.30;;;;;;;24.56;46.54;95577.44;5004303;28;20113;-62
2022/09/06 02:13:29;;;;;;;3.35;2.78;;;;;;;24.18;46.19;95510.03;4979670;28;20422;-65
2022/09/06 02:15:57;;;;;;;4.87;2.70;;;;;;;24.61;46.47;95576.66;4989463;28;20025;-64
2022/09/06 02:18:32;;;;;;;2.95;2.45;;;;;;;24.51;46.67;95580.91;4988056;28;20316;-66
2022/09/06 02:20:58;;;;;;;3.67;2.70;;;;;;;24.59;46.66;95579.16;4991242;28;20057;-64
2022/09/06 02:23:26;;;;;;;5.35;2.58;;;;;;;24.49;46.38;95561.56;4970426;28;20093;-65
2022/09/06 02:25:57;;;;;;;3.90;2.63;;;;;;;24.56;46.68;95577.44;4998796;28;20038;-63
2022/09/06 02:28:23;;;;;;;4.43;2.83;;;;;;;24.49;46.79;95567.75;4985689;28;20084;-66
2022/09/06 02:30:51;;;;;;;3.65;2.95;;;;;;;24.06;46.39;95519.50;5006778;28;20018;-65
2022/09/06 02:33:20;;;;;;;4.65;2.45;;;;;;;24.16;46.34;95512.53;5005622;28;20091;-63
2022/09/06 02:35:47;;;;;;;3.90;2.90;;;;;;;24.20;46.28;95536.81;4988035;28;20061;-62
2022/09/06 02:38:13;;;;;;;4.10;2.47;;;;;;;24.37;46.78;95554.66;4988154;28;20124;-61
2022/09/06 02:40:39;;;;;;;3.85;2.60;;;;;;;24.44;46.39;95565.78;5005848;28;20494;-64
2022/09/06 02:43:04;;;;;;;3.13;2.50;;;;;;;24.48;46.60;95579.19;4994498;28;20068;-67
2022/09/06 02:45:30;;;;;;;4.07;2.60;;;;;;;24.55;46.69;95582.13;4990386;28;20181;-64
2022/09/06 02:47:55;;;;;;;3.35;2.72;;;;;;;23.98;45.98;95513.09;5005043;28;20446;-64
2022/09/06 02:50:21;;;;;;;4.82;3.00;;;;;;;24.11;46.44;95537.84;4993965;28;20503;-63
2022/09/06 02:53:00;;;;;;;3.45;2.58;;;;;;;24.35;46.58;95585.19;5002762;28;20047;-63
2022/09/06 02:55:25;;;;;;;4.15;2.58;;;;;;;24.50;46.37;95591.09;5001586;28;20541;-67
2022/09/06 02:57:51;;;;;;;6.03;2.95;;;;;;;24.46;46.65;95589.88;5005473;28;20022;-67
2022/09/06 03:00:16;;;;;;;5.35;2.70;;;;;;;24.49;46.38;95589.59;5005458;28;20045;-64
2022/09/06 03:02:42;;;;;;;3.78;2.70;;;;;;;24.26;46.44;95571.06;5005277;28;20034;-65
2022/09/06 03:05:08;;;;;;;4.05;2.50;;;;;;;23.73;46.40;95466.31;5005390;28;20088;-66
2022/09/06 03:07:33;;;;;;;3.45;2.40;;;;;;;24.40;46.29;95564.56;5005112;28;20037;-63
2022/09/06 03:09:59;;;;;;;4.13;2.70;;;;;;;23.96;46.22;95510.13;5005960;28;20479;-64
2022/09/06 03:12:24;;;;;;;6.10;2.60;;;;;;;23.60;46.57;95468.78;4975954;28;20042;-63
2022/09/06 03:14:50;;;;;;;2.90;2.50;;;;;;;24.45;46.61;95600.06;5003077;28;20034;-67
2022/09/06 03:17:15;;;;;;;3.60;2.33;;;;;;;24.44;46.48;95579.44;4995314;28;20396;-66
2022/09/06 03:19:41;;;;;;;3.42;2.75;;;;;;;24.06;46.39;95524.22;5003142;28;20111;-66
2022/09/06 03:22:06;;;;;;;3.95;2.80;;;;;;;23.84;46.30;95485.34;5005869;28;20026;-64
2022/09/06 03:24:32;;;;;;;4.22;2.67;;;;;;;24.21;46.43;95563.59;4991453;28;20113;-65
2022/09/06 03:26:57;;;;;;;3.50;2.60;;;;;;;23.71;46.61;95476.97;5004606;28;20041;-67
2022/09/06 03:29:23;;;;;;;4.60;2.72;;;;;;;24.41;46.48;95587.91;4993246;28;20037;-66
2022/09/06 03:31:48;;;;;;;4.03;2.70;;;;;;;23.91;46.42;95502.69;4988636;28;20058;-64
2022/09/06 03:34:14;;;;;;;3.70;2.70;;;;;;;24.39;46.52;95590.38;5004948;28;20030;-67
2022/09/06 03:36:39;;;;;;;3.42;2.38;;;;;;;24.21;46.43;95569.06;4986964;28;20470;-67
2022/09/06 03:39:05;;;;;;;2.88;2.40;;;;;;;23.82;46.38;95509.66;4982113;28;20046;-67
2022/09/06 03:41:31;;;;;;;6.28;2.88;;;;;;;24.41;46.08;95599.56;4996540;28;20050;-64
2022/09/06 03:43:56;;;;;;;3.90;2.78;;;;;;;23.60;46.13;95482.41;4972067;28;20105;-63
2022/09/06 03:46:22;;;;;;;3.20;2.47;;;;;;;24.31;46.31;95597.56;4985413;28;20030;-66
2022/09/06 03:48:48;;;;;;;3.47;2.72;;;;;;;24.12;46.30;95569.34;4987462;28;20034;-66
2022/09/06 03:51:14;;;;;;;5.30;2.70;;;;;;;24.17;46.48;95584.97;4981386;28;20050;-61
2022/09/06 03:53:40;;;;;;;3.17;2.70;;;;;;;24.28;46.57;95590.41;4985135;28;20035;-66
2022/09/06 03:56:05;;;;;;;4.82;2.63;;;;;;;23.64;46.48;95496.56;4984891;28;20506;-64
2022/09/06 03:58:31;;;;;;;4.78;2.75;;;;;;;23.92;46.04;95541.63;4977989;28;20106;-67
2022/09/06 04:01:14;;;;;;;3.78;2.72;;;;;;;23.79;46.05;95521.56;4968172;28;20031;-65
2022/09/06 04:03:40;;;;;;;4.90;2.90;;;;;;;23.85;46.17;95546.84;4984073;28;20118;-64
2022/09/06 04:06:05;;;;;;;3.33;2.67;;;;;;;24.16;46.40;95583.47;4981794;28;20631;-68
2022/09/06 04:08:31;;;;;;;3.42;2.20;;;;;;;23.79;45.99;95529.75;4985484;28;20046;-67
2022/09/06 04:10:57;;;;;;;4.10;2.83;;;;;;;23.74;46.04;95522.34;4984760;28;20061;-63
2022/09/06 04:13:23;;;;;;;4.10;2.42;;;;;;;23.71;45.83;95515.16;4984807;28;20530;-68
2022/09/06 04:15:48;;;;;;;3.30;2.40;;;;;;;23.49;45.75;95480.44;4986335;28;20042;-65
2022/09/06 04:18:14;;;;;;;4.78;2.80;;;;;;;23.75;46.20;95526.53;4984214;28;20038;-69
2022/09/06 04:20:39;;;;;;;4.32;2.53;;;;;;;24.32;45.91;95609.22;4984117;28;20049;-65
2022/09/06 04:23:05;;;;;;;5.25;2.85;;;;;;;24.27;46.37;95607.28;4984908;28;20057;-65
2022/09/06 04:25:31;;;;;;;3.47;2.65;;;;;;;24.34;45.90;95611.00;4984551;28;20042;-63
2022/09/06 04:27:56;;;;;;;4.28;3.13;;;;;;;24.31;46.00;95600.31;4985185;28;20097;-64
2022/09/06 04:30:22;;;;;;;3.60;2.75;;;;;;;23.91;46.35;95549.06;4984120;28;20069;-66
2022/09/06 04:32:47;;;;;;;3.58;2.72;;;;;;;23.65;46.40;95514.44;4985364;28;20515;-64
2022/09/06 04:35:13;;;;;;;4.25;3.33;;;;;;;23.78;45.98;95541.91;4980353;28;20488;-65
2022/09/06 04:37:38;;;;;;;4.18;2.70;;;;;;;24.35;46.33;95611.75;4976939;28;20061;-64
2022/09/06 04:40:04;;;;;;;4.28;3.05;;;;;;;24.21;46.61;95601.09;4984744;28;20026;-64
2022/09/06 04:42:30;;;;;;;3.78;2.70;;;;;;;24.33;46.07;95614.22;4966909;28;20035;-65
2022/09/06 04:44:55;;;;;;;4.32;2.70;;;;;;;24.23;46.50;95599.34;4984223;28;20042;-63
2022/09/06 04:47:21;;;;;;;4.50;3.10;;;;;;;24.31;46.32;95611.22;4983631;28;20068;-61
2022/09/06 04:49:49;;;;;;;3.53;2.63;;;;;;;23.75;46.47;95529.25;4980860;28;20077;-65
2022/09/06 04:52:14;;;;;;;5.43;3.05;;;;;;;24.24;46.64;95611.72;4982337;28;20026;-65
2022/09/06 04:54:40;;;;;;;3.70;2.53;;;;;;;24.33;46.74;95603.31;4984837;28;20022;-66
2022/09/06 04:57:05;;;;;;;3.63;2.70;;;;;;;24.37;46.33;95609.25;4983969;28;20920;-66
2022/09/06 04:59:31;;;;;;;4.07;2.70;;;;;;;24.04;46.52;95565.66;4962964;28;20094;-67
2022/09/06 05:01:57;;;;;;;5.38;2.90;;;;;;;24.34;46.42;95600.06;4964452;28;20039;-64
2022/09/06 05:04:22;;;;;;;4.13;3.03;;;;;;;23.92;46.18;95531.47;4964012;28;20100;-66
2022/09/06 05:06:48;;;;;;;4.05;2.70;;;;;;;23.82;46.28;95515.13;4964839;28;20554;-65
2022/09/06 05:09:13;;;;;;;3.80;2.92;;;;;;;23.86;46.48;95526.53;4978885;28;20478;-66
2022/09/06 05:11:39;;;;;;;4.00;2.70;;;;;;;24.02;46.41;95546.31;4991145;28;20526;-66
2022/09/06 05:14:05;;;;;;;6.22;3.05;;;;;;;24.31;46.30;95583.94;4964492;28;20304;-63
2022/09/06 05:16:30;;;;;;;4.50;2.88;;;;;;;24.43;46.37;95596.31;4964202;28;20042;-67
2022/09/06 05:18:56;;;;;;;4.38;2.92;;;;;;;23.73;46.21;95501.75;4966646;28;20423;-62
2022/09/06 05:21:21;;;;;;;4.15;2.38;;;;;;;24.41;47.00;95612.47;4988134;28;20522;-65
2022/09/06 05:23:47;;;;;;;3.72;2.78;;;;;;;24.41;47.02;95598.81;4964043;28;20047;-63
2022/09/06 05:26:12;;;;;;;3.47;2.33;;;;;;;24.42;46.91;95605.75;4977070;28;20054;-63
2022/09/06 05:28:38;;;;;;;7.63;3.10;;;;;;;23.76;46.71;95511.66;4983287;28;20038;-72
2022/09/06 05:31:05;;;;;;;4.25;3.00;;;;;;;23.44;46.79;95458.66;4985331;28;20088;-64
2022/09/06 05:33:30;;;;;;;3.80;2.95;;;;;;;23.99;46.40;95536.41;4983551;28;20592;-65
2022/09/06 05:35:56;;;;;;;4.32;2.65;;;;;;;24.08;46.64;95549.78;4983552;28;20058;-61
2022/09/06 05:38:21;;;;;;;4.25;3.30;;;;;;;24.28;47.20;95595.84;4984536;28;20046;-65
2022/09/06 05:40:46;;;;;;;3.92;2.97;;;;;;;24.27;46.81;95588.91;4986705;28;20041;-63
2022/09/06 05:43:12;;;;;;;4.10;2.70;;;;;;;24.50;46.89;95604.00;4977485;28;20534;-64
2022/09/06 05:45:37;;;;;;;3.20;2.55;;;;;;;24.50;46.60;95606.75;4983624;28;20010;-64
2022/09/06 05:48:03;;;;;;;4.78;3.00;;;;;;;24.43;46.88;95596.31;4983579;28;20046;-63
2022/09/06 05:50:28;;;;;;;4.28;3.22;;;;;;;24.51;47.08;95608.22;4983457;28;20033;-63
2022/09/06 05:52:54;;;;;;;5.28;2.97;;;;;;;24.16;46.71;95545.28;4991530;28;20090;-61
2022/09/06 05:55:19;;;;;;;5.97;3.40;;;;;;;24.52;46.86;95596.03;4951183;28;20517;-66
2022/09/06 05:57:45;;;;;;;4.43;2.80;;;;;;;24.53;46.80;95594.81;4971682;28;20069;-63
2022/09/06 06:00:11;;;;;;;3.70;3.03;;;;;;;24.46;46.43;95584.41;4983781;28;20026;-65
2022/09/06 06:02:37;;;;;;;5.50;3.40;;;;;;;24.00;46.17;95516.03;4965941;28;20510;-62
2022/09/06 06:05:03;;;;;;;5.22;3.20;;;;;;;24.27;46.51;95539.78;4980098;28;20133;-65
2022/09/06 06:07:28;;;;;;;3.97;3.28;;;;;;;24.58;46.80;95580.38;4972732;28;20137;-64
2022/09/06 06:09:54;;;;;;;4.30;2.92;;;;;;;24.52;46.59;95585.13;4987505;28;20041;-64
2022/09/06 06:12:19;;;;;;;4.22;2.90;;;;;;;24.61;46.37;95585.56;4988632;28;20050;-68
2022/09/06 06:14:45;;;;;;;4.30;2.90;;;;;;;24.56;46.48;95571.97;4986775;28;20042;-65
2022/09/06 06:17:10;;;;;;;4.70;2.75;;;;;;;24.59;46.33;95571.69;4995382;28;20041;-65
2022/09/06 06:19:36;;;;;;;3.45;2.88;;;;;;;23.76;46.63;95446.22;4991254;28;20400;-64
2022/09/06 06:22:01;;;;;;;4.75;2.88;;;;;;;24.61;46.59;95579.38;4987306;28;20435;-65
2022/09/06 06:24:27;;;;;;;4.47;3.05;;;;;;;24.53;46.14;95562.03;4987250;28;20057;-61
2022/09/06 06:26:52;;;;;;;5.68;3.70;;;;;;;24.42;46.04;95534.78;4985001;28;20074;-66
2022/09/06 06:29:18;;;;;;;3.80;3.10;;;;;;;24.72;46.27;95584.78;4980181;28;20047;-66
2022/09/06 06:31:43;;;;;;;5.60;3.30;;;;;;;24.31;46.30;95518.41;4970535;28;20479;-62
2022/09/06 06:34:09;;;;;;;4.40;3.00;;;;;;;24.31;46.42;95532.06;4975576;28;20026;-62
2022/09/06 06:36:35;;;;;;;5.35;3.70;;;;;;;24.64;45.90;95561.97;4986653;28;20050;-65
2022/09/06 06:39:01;;;;;;;6.28;3.65;;;;;;;24.53;46.06;95537.47;4969303;28;20073;-64
2022/09/06 06:41:28;;;;;;;5.30;3.30;;;;;;;24.07;46.00;95474.59;4995501;28;20038;-64
2022/09/06 06:43:59;;;;;;;3.75;3.00;;;;;;;24.06;46.38;95464.94;4974694;28;20042;-61
2022/09/06 06:46:26;;;;;;;4.40;3.10;;;;;;;24.70;46.30;95574.34;4957983;28;20037;-65
2022/09/06 06:48:53;;;;;;;4.82;3.08;;;;;;;24.64;46.54;95556.53;4984577;28;20038;-63
2022/09/06 06:51:19;;;;;;;4.78;3.40;;;;;;;24.37;46.15;95511.72;4987382;28;20205;-66
2022/09/06 06:53:46;;;;;;;4.78;3.20;;;;;;;24.26;46.07;95496.59;4970387;28;20042;-64
2022/09/06 06:56:30;;;;;;;4.65;3.20;;;;;;;24.83;46.38;95580.75;4986015;28;20574;-62
2022/09/06 06:58:57;;;;;;;4.22;2.85;;;;;;;24.73;46.21;95558.97;4986464;28;20065;-61
2022/09/06 07:01:23;;;;;;;4.43;3.45;;;;;;;24.81;46.56;95579.75;4965917;28;20045;-66
2022/09/06 07:03:49;;;;;;;4.20;3.25;;;;;;;24.82;46.11;95573.78;4978614;28;20014;-61
2022/09/06 07:06:15;;;;;;;5.25;3.17;;;;;;;24.62;46.66;95545.34;4977910;28;20062;-66
2022/09/06 07:08:40;;;;;;;5.35;3.15;;;;;;;24.83;46.43;95564.34;4968787;28;20042;-64
2022/09/06 07:11:06;;;;;;;4.78;3.13;;;;;;;24.88;46.21;95587.44;4986194;28;20406;-63
2022/09/06 07:13:35;;;;;;;4.70;3.33;;;;;;;24.94;46.20;95580.69;4979667;28;20720;-67
2022/09/06 07:16:17;;;;;;;5.20;3.35;;;;;;;24.95;46.35;95584.91;4967026;28;20484;-65
2022/09/06 07:18:44;;;;;;;3.80;3.40;;;;;;;24.55;46.18;95524.03;4989077;28;20051;-69
2022/09/06 07:21:14;;;;;;;4.90;3.22;;;;;;;24.78;46.06;95571.84;4974344;28;20403;-64
2022/09/06 07:23:40;;;;;;;4.38;3.35;;;;;;;25.01;46.17;95585.63;4973430;28;20038;-62
2022/09/06 07:26:05;;;;;;;5.60;3.03;;;;;;;24.18;46.01;95455.44;4986232;28;20562;-64
2022/09/06 07:28:31;;;;;;;5.50;3.15;;;;;;;24.64;45.89;95546.34;4986079;28;20031;-63
2022/09/06 07:30:57;;;;;;;4.80;3.40;;;;;;;24.96;46.36;95583.66;4988994;28;20136;-68
2022/09/06 07:33:22;;;;;;;4.18;3.22;;;;;;;24.99;46.07;95596.34;4975701;28;20069;-65
2022/09/06 07:36:07;;;;;;;6.13;3.40;;;;;;;24.46;45.91;95514.16;4986021;28;20054;-63
2022/09/06 07:38:33;;;;;;;4.65;3.55;;;;;;;24.57;46.47;95519.56;4968908;28;20506;-66
2022/09/06 07:41:00;;;;;;;5.63;3.33;;;;;;;24.53;46.75;95507.44;4990526;28;20049;-66
2022/09/06 07:43:26;;;;;;;5.53;3.10;;;;;;;24.49;46.16;95501.50;4991230;28;20140;-61
2022/09/06 07:46:02;;;;;;;4.82;3.17;;;;;;;25.06;46.17;95587.59;4986961;28;20054;-62
2022/09/06 07:48:32;;;;;;;4.95;3.50;;;;;;;24.17;46.52;95453.97;4985587;28;20074;-64
2022/09/06 07:51:17;;;;;;;5.22;3.67;;;;;;;24.64;46.31;95515.56;4986111;28;20039;-66
2022/09/06 07:53:43;;;;;;;4.82;3.50;;;;;;;24.21;46.21;95446.25;4964043;28;20204;-62
2022/09/06 07:56:10;;;;;;;4.75;3.40;;;;;;;25.06;46.28;95565.72;4980604;28;20608;-67
2022/09/06 07:58:36;;;;;;;5.35;3.40;;;;;;;24.99;46.06;95563.56;4991723;28;20038;-67
2022/09/06 08:01:26;;;;;;;4.90;3.65;;;;;;;25.16;46.36;95577.13;4969510;28;20414;-64
2022/09/06 08:03:52;;;;;;;4.57;3.45;;;;;;;25.10;46.62;95581.88;4987565;28;20097;-66
2022/09/06 08:06:18;;;;;;;6.50;3.63;;;;;;;24.81;45.96;95514.19;4982744;28;20460;-65
2022/09/06 08:08:43;;;;;;;4.43;3.28;;;;;;;25.20;45.95;95575.59;4981819;28;20082;-67
2022/09/06 08:11:08;;;;;;;5.28;3.70;;;;;;;24.78;46.09;95514.47;4985730;28;20030;-64
2022/09/06 08:13:34;;;;;;;4.78;3.30;;;;;;;25.19;46.12;95576.84;4985686;28;20058;-67
2022/09/06 08:16:01;;;;;;;5.43;3.50;;;;;;;24.98;46.04;95534.72;4960637;28;20066;-66
2022/09/06 08:18:27;;;;;;;4.15;3.30;;;;;;;25.04;46.16;95538.16;4972845;28;20356;-62
2022/09/06 08:20:52;;;;;;;4.03;3.30;;;;;;;24.65;46.38;95481.53;4976565;28;20043;-64
2022/09/06 08:23:19;;;;;;;6.53;3.47;;;;;;;24.78;45.86;95495.34;4966979;28;20049;-66
2022/09/06 08:25:57;;;;;;;4.88;3.25;;;;;;;22.98;45.73;95265.09;4992952;28;20057;-66
2022/09/06 08:28:23;;;;;;;4.43;3.45;;;;;;;25.15;45.98;95546.28;4983560;28;20027;-67
2022/09/06 08:30:48;;;;;;;5.50;3.40;;;;;;;24.83;46.09;95504.25;4991703;28;20146;-62
2022/09/06 08:33:14;;;;;;;4.60;3.38;;;;;;;25.02;46.08;95516.09;4972612;28;20035;-63
2022/09/06 08:35:40;;;;;;;4.50;3.30;;;;;;;25.04;46.15;95508.09;4979902;28;20077;-66
2022/09/06 08:38:06;;;;;;;4.30;3.40;;;;;;;24.89;45.85;95474.91;4993555;28;20034;-68
2022/09/06 08:40:31;;;;;;;4.07;3.22;;;;;;;25.36;46.00;95550.84;5004928;28;20065;-68
2022/09/06 08:42:57;;;;;;;4.55;3.72;;;;;;;25.39;46.05;95555.28;5005601;28;20040;-65
2022/09/06 08:45:23;;;;;;;5.28;3.67;;;;;;;24.80;45.75;95454.59;4997900;28;20026;-63
2022/09/06 08:47:51;;;;;;;5.00;3.72;;;;;;;25.43;45.75;95549.56;4992588;28;20042;-65
2022/09/06 08:50:16;;;;;;;4.75;3.63;;;;;;;25.02;45.64;95479.78;5000872;28;20530;-65
2022/09/06 08:53:20;;;;;;;4.30;3.50;;;;;;;25.50;45.94;95540.78;5001744;28;20096;-64
2022/09/06 08:55:58;;;;;;;4.35;3.45;;;;;;;25.45;45.70;95522.44;4978994;28;20572;-65
2022/09/06 08:58:45;;;;;;;6.65;3.97;;;;;;;25.53;45.68;95534.28;4946110;28;20031;-62
2022/09/06 09:01:13;;;;;;;5.00;3.28;;;;;;;24.85;45.77;95430.72;4985681;28;20034;-62
2022/09/06 09:03:39;;;;;;;4.75;3.42;;;;;;;25.54;45.79;95525.56;4977072;28;20030;-62
2022/09/06 09:06:05;;;;;;;4.78;3.58;;;;;;;25.08;45.38;95459.41;4998521;28;20534;-61
2022/09/06 09:08:33;;;;;;;5.45;3.80;;;;;;;25.49;45.19;95509.22;5006436;28;20044;-63
2022/09/06 09:11:07;;;;;;;6.15;4.15;;;;;;;25.62;45.06;95514.81;5005774;28;20034;-61
2022/09/06 09:13:45;;;;;;;3.97;3.38;;;;;;;25.45;44.76;95484.16;4985997;28;20034;-61
2022/09/06 09:16:10;;;;;;;6.75;3.72;;;;;;;25.17;44.84;95439.19;4977977;28;20113;-61
2022/09/06 09:18:37;;;;;;;5.35;3.60;;;;;;;24.99;45.02;95396.88;4978689;28;20042;-62
2022/09/06 09:21:03;;;;;;;5.55;4.00;;;;;;;25.52;45.01;95478.13;4987718;28;20108;-62
2022/09/06 09:23:29;;;;;;;5.13;3.63;;;;;;;25.53;44.92;95477.63;4987507;28;20513;-61
2022/09/06 09:25:58;;;;;;;4.10;3.50;;;;;;;25.18;45.05;95402.41;5003177;28;20072;-61
2022/09/06 09:28:23;;;;;;;4.20;3.25;;;;;;;25.75;44.58;95493.09;5003332;28;20068;-66
2022/09/06 09:30:51;;;;;;;6.47;3.58;;;;;;;25.78;44.19;95492.06;4994456;28;20042;-64
2022/09/06 09:33:27;;;;;;;5.13;3.67;;;;;;;25.79;44.47;95493.56;5002572;28;20096;-67
2022/09/06 09:35:54;;;;;;;5.65;3.50;;;;;;;25.84;44.80;95493.47;5002441;28;20418;-66
2022/09/06 09:38:25;;;;;;;4.82;3.63;;;;;;;25.84;44.39;95480.56;5003145;28;20046;-67
2022/09/06 09:40:55;;;;;;;3.85;3.45;;;;;;;25.61;44.39;95444.97;5007105;28;20041;-66
2022/09/06 09:43:25;;;;;;;4.53;3.47;;;;;;;25.80;44.76;95469.16;4994634;28;20079;-66
2022/09/06 09:46:15;;;;;;;4.88;3.65;;;;;;;25.92;44.67;95475.25;5015643;28;20010;-64
2022/09/06 09:48:48;;;;;;;3.38;3.08;;;;;;;25.84;44.77;95464.13;5005083;28;20103;-66
2022/09/06 09:51:19;;;;;;;5.00;3.50;;;;;;;25.39;44.34;95390.50;4985896;28;20101;-66
2022/09/06 09:53:55;;;;;;;4.45;3.60;;;;;;;25.99;44.55;95475.41;4988428;28;20030;-65
2022/09/06 09:56:31;;;;;;;5.50;3.60;;;;;;;25.48;44.65;95398.34;5015984;28;20813;-67
2022/09/06 09:58:57;;;;;;;4.95;3.75;;;;;;;25.80;44.80;95450.00;5019339;28;20045;-68
2022/09/06 10:01:28;;;;;;;5.60;3.50;;;;;;;26.05;44.63;95462.41;4977102;28;20076;-66
2022/09/06 10:04:07;;;;;;;3.55;3.03;;;;;;;25.90;44.74;95434.72;5008050;28;20501;-63
2022/09/06 10:06:33;;;;;;;4.45;3.28;;;;;;;26.07;44.91;95459.88;4986032;28;20034;-65
2022/09/06 10:08:58;;;;;;;4.82;3.40;;;;;;;26.12;44.87;95461.78;4985991;28;20054;-64
2022/09/06 10:11:53;;;;;;;4.63;3.65;;;;;;;26.13;44.81;95457.81;4983262;28;20521;-66
2022/09/06 10:14:27;;;;;;;4.28;3.10;;;;;;;25.78;44.58;95401.78;4979891;28;20488;-62
2022/09/06 10:16:53;;;;;;;3.47;2.97;;;;;;;26.15;44.85;95455.28;4988576;28;20037;-63
2022/09/06 10:19:37;;;;;;;4.38;3.05;;;;;;;25.90;45.50;95421.03;5006611;28;20057;-61
2022/09/06 10:22:19;;;;;;;3.88;3.13;;;;;;;25.75;45.35;95400.78;5007576;28;20478;-67
2022/09/06 10:25:00;;;;;;;4.07;3.20;;;;;;;26.14;45.60;95447.59;4974745;28;20026;-69
2022/09/06 10:27:26;;;;;;;3.42;3.10;;;;;;;26.16;45.44;95440.34;4996566;28;20105;-62
2022/09/06 10:30:00;;;;;;;3.83;3.00;;;;;;;25.98;45.41;95416.44;5006686;28;20042;-66
2022/09/06 10:33:15;;;;;;;5.55;3.20;;;;;;;26.04;45.58;95417.13;4990210;28;20079;-67
2022/09/06 10:35:41;;;;;;;4.30;2.90;;;;;;;26.10;46.00;95431.47;4974824;28;20042;-67
2022/09/06 10:38:21;;;;;;;4.88;3.20;;;;;;;26.19;45.25;95436.59;5009258;28;20585;-65
2022/09/06 10:41:01;;;;;;;4.60;2.85;;;;;;;26.19;45.72;95438.56;4994777;28;20045;-67
2022/09/06 10:43:31;;;;;;;3.92;2.92;;;;;;;26.04;45.73;95411.63;4991492;28;20030;-69
2022/09/06 10:46:00;;;;;;;3.63;3.03;;;;;;;25.65;45.24;95349.69;4997072;28;20026;-66
2022/09/06 10:48:33;;;;;;;4.10;3.05;;;;;;;25.90;45.62;95385.44;4973063;28;20037;-67
2022/09/06 10:51:06;;;;;;;3.00;2.45;;;;;;;25.78;45.59;95363.47;5002685;28;20047;-65
2022/09/06 10:53:57;;;;;;;3.78;3.00;;;;;;;26.27;45.09;95429.25;4990680;28;20042;-65
2022/09/06 10:56:25;;;;;;;4.60;3.08;;;;;;;26.24;45.20;95424.06;5004860;28;20042;-63
2022/09/06 10:58:59;;;;;;;3.10;2.80;;;;;;;26.28;45.51;95414.34;5006496;28;20494;-64
2022/09/06 11:02:04;;;;;;;3.28;2.88;;;;;;;26.32;45.62;95420.25;4973746;28;20026;-65
2022/09/06 11:04:34;;;;;;;4.25;2.97;;;;;;;25.46;45.34;95286.75;4941183;28;20050;-66
2022/09/06 11:07:03;;;;;;;3.65;2.90;;;;;;;26.34;45.12;95413.00;5011590;28;20025;-68
2022/09/06 11:09:38;;;;;;;3.75;3.17;;;;;;;25.64;45.06;95312.63;4973313;28;20030;-67
2022/09/06 11:12:11;;;;;;;3.92;2.97;;;;;;;26.35;45.33;95402.78;4980363;28;20046;-68
2022/09/06 11:14:37;;;;;;;3.92;2.90;;;;;;;26.31;45.37;95405.09;4997393;28;20411;-67
2022/09/06 11:17:06;;;;;;;3.80;2.88;;;;;;;26.03;45.11;95366.34;4996329;28;20046;-67
2022/09/06 11:19:45;;;;;;;3.20;2.87;;;;;;;26.41;45.36;95406.16;5005266;28;20046;-69
2022/09/06 11:22:23;;;;;;;3.28;2.85;;;;;;;26.25;45.27;95382.50;4998447;28;20042;-70
2022/09/06 11:25:10;;;;;;;3.28;2.80;;;;;;;26.46;45.06;95402.63;4968078;28;20038;-69
2022/09/06 11:27:37;;;;;;;3.40;3.00;;;;;;;26.42;45.22;95391.22;4991863;28;20129;-69
2022/09/06 11:30:04;;;;;;;3.63;2.90;;;;;;;25.61;44.74;95275.38;5006520;28;20133;-70
2022/09/06 11:32:43;;;;;;;3.35;2.80;;;;;;;26.24;45.19;95370.03;4973642;28;20038;-70
2022/09/06 11:35:19;;;;;;;3.90;3.17;;;;;;;26.51;44.91;95396.31;4989918;28;20120;-69
2022/09/06 11:37:48;;;;;;;3.42;3.03;;;;;;;25.94;45.01;95320.19;5013922;28;20442;-67
2022/09/06 11:40:17;;;;;;;3.65;3.10;;;;;;;26.50;44.99;95392.84;4973200;28;20846;-70
2022/09/06 11:42:43;;;;;;;4.00;3.20;;;;;;;26.53;45.50;95385.56;5007138;28;20113;-69
2022/09/06 11:45:20;;;;;;;3.50;2.70;;;;;;;26.44;44.79;95399.66;4993193;28;20141;-67
2022/09/06 11:47:47;;;;;;;3.78;3.05;;;;;;;26.56;44.63;95392.75;5008435;28;20509;-69